Time;durP1;ratioP1;P1;durP2;ratioP2;P2;SDS_P1;SDS_P2;PMS_P1;PMS_P2;Temp;Humidity;BMP_temperature;BMP_pressure;BME280_temperature;BME280_humidity;BME280_pressure;Samples;Min_cycle;Max_cycle;Signal;HPM_P1;HPM_P2
2023/12/29 00:01:16;;;;;;;10.35;7.00;;;;;;;5.45;51.79;94496.31;5092579;28;20077;-77
2023/12/29 00:03:41;;;;;;;10.00;8.07;;;;;;;5.46;51.58;94491.84;5092784;28;20124;-76
2023/12/29 00:06:07;;;;;;;11.43;8.43;;;;;;;5.44;51.52;94488.66;5090431;28;20094;-76
2023/12/29 00:08:32;;;;;;;12.40;9.52;;;;;;;5.40;51.78;94493.69;5094863;28;20123;-76
2023/12/29 00:10:59;;;;;;;11.30;8.15;;;;;;;5.30;51.70;94490.25;5097941;28;20058;-78
2023/12/29 00:13:25;;;;;;;10.65;7.20;;;;;;;5.14;52.04;94468.34;5104750;28;20040;-77
2023/12/29 00:15:55;;;;;;;8.43;6.03;;;;;;;5.21;51.97;94476.00;5103404;28;20035;-76
2023/12/29 00:18:21;;;;;;;7.60;5.35;;;;;;;5.17;51.66;94483.66;5097986;28;20032;-77
2023/12/29 00:20:47;;;;;;;9.93;7.07;;;;;;;5.06;51.85;94482.06;5089093;28;20032;-76
2023/12/29 00:23:12;;;;;;;11.98;7.72;;;;;;;4.98;51.67;94470.19;5091107;27;20111;-76
2023/12/29 00:25:38;;;;;;;15.95;8.38;;;;;;;5.07;51.86;94492.34;5089910;28;20827;-77
2023/12/29 00:28:04;;;;;;;11.65;7.75;;;;;;;5.03;52.03;94483.38;5090203;28;20032;-76
2023/12/29 00:30:30;;;;;;;15.57;8.48;;;;;;;5.15;51.73;94493.66;5087596;27;20033;-77
2023/12/29 00:32:56;;;;;;;11.88;8.02;;;;;;;5.12;51.76;94497.63;5092171;28;20035;-77
2023/12/29 00:35:22;;;;;;;14.02;8.90;;;;;;;5.13;51.83;94491.31;5091253;28;20068;-77
2023/12/29 00:37:48;;;;;;;14.05;8.93;;;;;;;5.09;52.16;94492.88;5090676;28;20020;-76
2023/12/29 00:40:14;;;;;;;9.23;6.70;;;;;;;4.91;51.93;94460.94;5090335;28;20976;-77
2023/12/29 00:42:39;;;;;;;9.45;6.53;;;;;;;5.08;52.06;94486.03;5087705;28;20040;-77
2023/12/29 00:45:05;;;;;;;12.75;6.85;;;;;;;5.06;52.04;94474.94;5090426;28;20032;-76
2023/12/29 00:47:31;;;;;;;12.13;6.53;;;;;;;5.01;52.42;94479.41;5089756;28;20039;-77
2023/12/29 00:49:57;;;;;;;12.25;7.90;;;;;;;5.01;52.23;94476.78;5092907;28;20043;-76
2023/12/29 00:52:22;;;;;;;8.23;6.53;;;;;;;4.96;52.25;94456.47;5091212;28;20442;-77
2023/12/29 00:54:47;;;;;;;10.02;5.93;;;;;;;4.91;52.16;94448.56;5089213;28;20035;-75
2023/12/29 00:57:13;;;;;;;10.52;6.05;;;;;;;4.97;52.14;94447.53;5092028;28;20066;-77
2023/12/29 00:59:41;;;;;;;8.98;5.35;;;;;;;5.05;51.96;94454.09;5090132;28;20065;-76
2023/12/29 01:02:06;;;;;;;11.27;8.23;;;;;;;5.03;51.60;94470.22;5092119;28;20027;-76
2023/12/29 01:04:31;;;;;;;19.35;13.32;;;;;;;4.75;53.19;94478.56;5092191;28;20063;-76
2023/12/29 01:06:57;;;;;;;33.13;23.52;;;;;;;4.65;53.08;94441.66;5092389;28;20504;-77
2023/12/29 01:09:22;;;;;;;17.45;12.98;;;;;;;4.79;52.34;94455.94;5094915;28;20032;-77
2023/12/29 01:11:48;;;;;;;19.77;12.38;;;;;;;4.78;52.96;94469.38;5092678;28;20031;-77
2023/12/29 01:14:14;;;;;;;11.05;7.30;;;;;;;4.77;52.93;94468.56;5078585;28;20142;-77
2023/12/29 01:16:41;;;;;;;12.60;7.57;;;;;;;4.81;52.75;94468.84;5090112;28;20039;-76
2023/12/29 01:19:06;;;;;;;11.98;8.00;;;;;;;4.64;53.26;94459.34;5091405;28;20039;-76
2023/12/29 01:21:33;;;;;;;14.15;7.88;;;;;;;4.66;52.22;94459.06;5088683;28;20679;-76
2023/12/29 01:24:04;;;;;;;11.70;7.93;;;;;;;4.65;52.44;94486.44;5090343;28;20036;-77
2023/12/29 01:26:30;;;;;;;10.05;7.82;;;;;;;4.52;53.02;94460.59;5088390;28;20473;-77
2023/12/29 01:28:55;;;;;;;12.48;9.25;;;;;;;4.48;53.13;94451.63;5091578;28;20026;-76
2023/12/29 01:31:21;;;;;;;10.27;8.23;;;;;;;4.44;53.06;94461.09;5088447;27;20028;-77
2023/12/29 01:33:46;;;;;;;8.43;6.63;;;;;;;4.53;52.81;94468.25;5091092;27;20457;-76
2023/12/29 01:36:18;;;;;;;9.25;7.93;;;;;;;4.40;53.40;94478.47;5089787;28;20063;-76
2023/12/29 01:38:44;;;;;;;8.23;6.45;;;;;;;4.40;53.29;94481.13;5091946;28;20902;-77
2023/12/29 01:41:09;;;;;;;11.75;6.10;;;;;;;4.33;53.14;94481.34;5091612;28;20462;-76
2023/12/29 01:43:34;;;;;;;8.25;5.97;;;;;;;4.39;53.19;94484.78;5091145;28;20164;-78
2023/12/29 01:46:00;;;;;;;11.80;7.35;;;;;;;4.53;52.85;94493.78;5092913;28;20032;-76
2023/12/29 01:48:26;;;;;;;14.52;6.88;;;;;;;4.51;52.75;94490.63;5091340;27;20030;-75
2023/12/29 01:50:54;;;;;;;10.75;7.97;;;;;;;4.49;52.89;94487.47;5086908;28;20104;-76
2023/12/29 01:53:20;;;;;;;14.23;9.05;;;;;;;4.42;52.81;94463.19;5089596;28;20034;-77
2023/12/29 01:55:46;;;;;;;9.32;7.95;;;;;;;4.13;52.92;94421.47;5087698;28;20027;-76
2023/12/29 01:58:11;;;;;;;16.50;10.30;;;;;;;4.47;53.08;94471.91;5087821;28;20036;-76
2023/12/29 02:00:37;;;;;;;17.23;11.00;;;;;;;4.25;53.09;94458.91;5086017;28;20312;-76
2023/12/29 02:03:03;;;;;;;17.55;12.25;;;;;;;4.25;53.18;94456.28;5091285;28;20044;-76
2023/12/29 02:05:30;;;;;;;23.90;16.17;;;;;;;4.45;53.39;94470.59;5086788;27;20494;-76
2023/12/29 02:07:56;;;;;;;26.83;17.45;;;;;;;4.22;53.00;94438.34;5091043;28;20024;-76
2023/12/29 02:10:22;;;;;;;22.08;14.27;;;;;;;4.05;53.21;94408.81;5088826;28;20047;-77
2023/12/29 02:12:50;;;;;;;17.27;13.10;;;;;;;4.11;53.70;94426.19;5090428;28;20027;-76
2023/12/29 02:15:16;;;;;;;18.15;11.98;;;;;;;4.20;53.40;94432.56;5089630;28;20480;-77
2023/12/29 02:17:51;;;;;;;17.60;11.20;;;;;;;4.04;53.69;94407.22;5092056;28;20032;-76
2023/12/29 02:20:17;;;;;;;18.02;11.38;;;;;;;4.21;53.33;94434.13;5095124;28;20040;-76
2023/12/29 02:22:42;;;;;;;15.25;11.23;;;;;;;4.19;53.40;94425.72;5088387;28;20061;-76
2023/12/29 02:25:08;;;;;;;13.68;8.38;;;;;;;4.31;53.15;94433.41;5087868;28;20044;-76
2023/12/29 02:27:43;;;;;;;9.85;6.63;;;;;;;4.39;53.12;94435.53;5082030;28;20036;-77
2023/12/29 02:30:50;;;;;;;7.00;5.15;;;;;;;4.45;52.99;94439.00;5087974;28;20040;-77
2023/12/29 02:33:21;;;;;;;8.55;5.38;;;;;;;4.46;53.02;94430.00;5089749;28;20048;-76
2023/12/29 02:35:49;;;;;;;8.55;5.65;;;;;;;4.28;53.16;94418.88;5088367;28;20565;-76
2023/12/29 02:38:15;;;;;;;6.25;5.20;;;;;;;4.40;53.33;94425.81;5090419;28;20027;-76
2023/12/29 02:40:41;;;;;;;6.53;5.05;;;;;;;4.45;53.32;94415.28;5086879;28;20051;-76
2023/12/29 02:43:08;;;;;;;7.85;5.43;;;;;;;4.34;53.04;94392.59;5088489;28;20032;-76
2023/12/29 02:45:34;;;;;;;6.53;4.85;;;;;;;4.40;53.09;94410.00;5086290;28;20085;-77
2023/12/29 02:47:59;;;;;;;5.75;4.50;;;;;;;4.22;52.97;94383.06;5086410;28;20032;-78
2023/12/29 02:50:24;;;;;;;6.15;5.18;;;;;;;4.45;52.65;94407.38;5088806;28;20052;-76
2023/12/29 02:52:50;;;;;;;9.95;5.97;;;;;;;4.33;52.58;94383.13;5087492;28;20027;-76
2023/12/29 02:55:15;;;;;;;7.22;4.90;;;;;;;4.40;52.68;94391.56;5087875;28;20071;-76
2023/12/29 02:57:44;;;;;;;8.70;5.45;;;;;;;4.33;52.84;94399.72;5090825;28;20035;-76
2023/12/29 03:00:09;;;;;;;12.25;7.55;;;;;;;4.28;52.80;94376.75;5089703;28;20465;-76
2023/12/29 03:02:35;;;;;;;12.57;8.82;;;;;;;4.16;52.96;94352.50;5093896;28;20026;-76
2023/12/29 03:05:00;;;;;;;10.13;7.75;;;;;;;4.07;53.39;94363.78;5088959;27;20032;-77
2023/12/29 03:07:26;;;;;;;11.10;9.10;;;;;;;4.15;53.35;94377.25;5092484;27;20032;-77
2023/12/29 03:09:52;;;;;;;13.57;8.73;;;;;;;4.26;53.39;94384.13;5093588;28;20098;-77
2023/12/29 03:12:17;;;;;;;15.88;10.70;;;;;;;3.78;53.17;94329.22;5093720;28;20070;-76
2023/12/29 03:14:46;;;;;;;14.45;9.45;;;;;;;4.25;52.98;94393.09;5091815;28;20028;-76
2023/12/29 03:17:12;;;;;;;17.15;9.75;;;;;;;3.98;53.35;94368.75;5093609;28;20479;-77
2023/12/29 03:19:38;;;;;;;20.52;12.40;;;;;;;3.89;53.38;94356.34;5092149;28;20036;-77
2023/12/29 03:22:03;;;;;;;21.17;12.45;;;;;;;3.85;53.25;94345.56;5093530;28;20086;-76
2023/12/29 03:24:31;;;;;;;19.13;12.80;;;;;;;3.98;53.23;94383.75;5091212;28;20040;-76
2023/12/29 03:26:56;;;;;;;25.95;12.93;;;;;;;3.83;53.46;94373.97;5093032;28;20040;-76
2023/12/29 03:29:22;;;;;;;22.17;13.27;;;;;;;3.74;53.28;94376.31;5090174;28;20391;-76
2023/12/29 03:31:47;;;;;;;38.05;16.60;;;;;;;3.76;53.11;94368.16;5090257;28;20020;-76
2023/12/29 03:34:13;;;;;;;20.75;13.45;;;;;;;3.79;53.80;94383.41;5091635;27;20116;-76
2023/12/29 03:36:38;;;;;;;31.08;16.52;;;;;;;3.74;53.88;94378.94;5091145;28;20503;-76
2023/12/29 03:39:04;;;;;;;26.35;14.88;;;;;;;3.51;53.89;94345.16;5090584;27;20078;-77
2023/12/29 03:41:30;;;;;;;16.27;10.45;;;;;;;3.50;53.93;94354.09;5092984;28;20023;-77
2023/12/29 03:43:56;;;;;;;18.05;12.20;;;;;;;3.53;54.46;94347.50;5090792;28;20484;-77
2023/12/29 03:46:23;;;;;;;19.08;12.77;;;;;;;3.67;54.56;94370.47;5092447;28;20389;-76
2023/12/29 03:48:49;;;;;;;18.85;11.68;;;;;;;3.82;54.43;94378.44;5089472;28;20031;-76
2023/12/29 03:51:18;;;;;;;21.08;11.32;;;;;;;3.84;54.41;94386.06;5089565;28;20039;-76
2023/12/29 03:53:43;;;;;;;25.88;17.73;;;;;;;3.67;54.44;94361.81;5094828;28;20086;-76
2023/12/29 03:56:13;;;;;;;20.85;14.82;;;;;;;3.63;54.40;94373.88;5093974;28;20436;-77
2023/12/29 03:58:38;;;;;;;20.45;13.73;;;;;;;3.35;54.16;94362.69;5089543;28;20032;-76
2023/12/29 04:01:04;;;;;;;22.48;12.73;;;;;;;3.60;54.26;94379.66;5092731;28;20427;-76
2023/12/29 04:03:29;;;;;;;18.35;12.38;;;;;;;3.56;54.45;94389.91;5089484;28;20504;-76
2023/12/29 04:05:55;;;;;;;19.23;10.85;;;;;;;3.54;54.47;94383.28;5094025;27;20028;-76
2023/12/29 04:08:20;;;;;;;15.30;11.27;;;;;;;3.70;54.24;94387.59;5092367;28;20025;-76
2023/12/29 04:10:45;;;;;;;13.32;10.80;;;;;;;3.78;54.41;94390.53;5092900;27;20635;-76
2023/12/29 04:13:11;;;;;;;20.85;13.63;;;;;;;3.76;54.53;94391.84;5094913;27;20047;-77
2023/12/29 04:15:36;;;;;;;19.38;13.18;;;;;;;3.81;54.48;94392.66;5091849;28;20040;-77
2023/12/29 04:18:01;;;;;;;20.02;13.35;;;;;;;3.71;54.72;94376.03;5091872;28;20036;-76
2023/12/29 04:20:27;;;;;;;22.70;13.85;;;;;;;3.75;54.37;94383.16;5090917;28;20508;-76
2023/12/29 04:22:53;;;;;;;22.08;13.32;;;;;;;3.86;54.55;94399.78;5094242;27;20016;-76
2023/12/29 04:25:18;;;;;;;17.88;11.68;;;;;;;3.80;54.47;94396.34;5093583;27;20126;-76
2023/12/29 04:27:44;;;;;;;18.02;10.93;;;;;;;3.71;54.62;94371.56;5093654;28;20415;-76
2023/12/29 04:30:10;;;;;;;15.70;10.70;;;;;;;3.95;54.39;94386.91;5092849;27;20039;-76
2023/12/29 04:32:35;;;;;;;21.38;13.68;;;;;;;3.81;54.58;94376.88;5093261;27;20023;-77
2023/12/29 04:35:01;;;;;;;24.27;15.55;;;;;;;3.70;55.44;94369.97;5092142;28;20040;-76
2023/12/29 04:37:27;;;;;;;27.33;17.63;;;;;;;3.64;56.36;94385.97;5092605;28;20103;-76
2023/12/29 04:39:53;;;;;;;32.17;18.65;;;;;;;3.81;56.15;94392.66;5090775;28;20044;-76
2023/12/29 04:42:18;;;;;;;30.63;19.65;;;;;;;3.79;56.28;94388.69;5090700;28;20038;-77
2023/12/29 04:44:44;;;;;;;35.30;19.80;;;;;;;3.65;56.69;94361.25;5092894;28;20028;-76
2023/12/29 04:47:09;;;;;;;30.75;19.20;;;;;;;3.74;56.45;94363.16;5091141;28;20028;-76
2023/12/29 04:49:35;;;;;;;28.85;19.15;;;;;;;3.93;56.63;94381.09;5089329;28;20694;-77
2023/12/29 04:52:00;;;;;;;29.38;19.63;;;;;;;3.94;55.80;94374.81;5096028;28;20127;-75
2023/12/29 04:54:26;;;;;;;31.50;17.90;;;;;;;3.96;55.28;94399.81;5089806;28;20096;-76
2023/12/29 04:56:52;;;;;;;22.67;14.68;;;;;;;3.89;55.15;94386.09;5091843;28;20117;-76
2023/12/29 04:59:17;;;;;;;32.70;21.90;;;;;;;3.84;55.08;94389.50;5092213;28;20473;-76
2023/12/29 05:01:43;;;;;;;38.60;20.80;;;;;;;3.60;55.77;94374.38;5088506;28;20028;-76
2023/12/29 05:04:08;;;;;;;27.63;18.08;;;;;;;3.74;55.72;94386.03;5091546;28;20051;-76
2023/12/29 05:06:33;;;;;;;25.33;15.02;;;;;;;3.73;55.54;94374.72;5091071;28;20070;-77
2023/12/29 05:08:59;;;;;;;15.07;10.90;;;;;;;3.88;55.33;94379.25;5093481;28;20042;-75
2023/12/29 05:11:24;;;;;;;14.88;10.15;;;;;;;3.74;55.00;94354.47;5090531;27;20396;-76
2023/12/29 05:13:50;;;;;;;11.52;8.88;;;;;;;3.85;54.76;94356.09;5088642;28;20087;-75
2023/12/29 05:16:15;;;;;;;11.73;8.00;;;;;;;3.87;54.92;94369.00;5086654;28;20677;-77
2023/12/29 05:18:41;;;;;;;10.80;7.25;;;;;;;3.95;54.79;94366.66;5089026;27;20040;-76
2023/12/29 05:21:14;;;;;;;11.10;7.10;;;;;;;3.91;54.61;94360.34;5090781;28;20408;-77
2023/12/29 05:23:40;;;;;;;10.85;7.65;;;;;;;3.86;54.69;94362.94;5087909;28;20091;-76
2023/12/29 05:26:05;;;;;;;10.68;6.85;;;;;;;4.00;54.59;94358.78;5089888;28;20031;-76
2023/12/29 05:28:30;;;;;;;15.00;7.70;;;;;;;4.08;54.39;94360.09;5088831;28;20040;-76
2023/12/29 05:30:56;;;;;;;10.68;7.97;;;;;;;4.18;53.75;94362.78;5090989;28;20064;-77
2023/12/29 05:33:21;;;;;;;16.92;9.35;;;;;;;3.99;54.23;94362.44;5090450;28;20028;-76
2023/12/29 05:35:46;;;;;;;13.15;10.20;;;;;;;3.92;54.26;94379.50;5090022;28;20031;-77
2023/12/29 05:38:15;;;;;;;21.38;15.20;;;;;;;3.84;54.42;94365.03;5089319;28;20032;-77
2023/12/29 05:40:40;;;;;;;20.05;14.25;;;;;;;3.80;54.35;94361.34;5090766;28;20081;-76
2023/12/29 05:43:06;;;;;;;20.73;14.82;;;;;;;3.90;54.49;94385.06;5088928;28;20035;-76
2023/12/29 05:45:31;;;;;;;21.70;15.10;;;;;;;3.83;54.30;94389.75;5095849;28;20038;-77
2023/12/29 05:47:56;;;;;;;24.23;15.48;;;;;;;3.76;54.50;94381.31;5089299;28;20039;-76
2023/12/29 05:50:22;;;;;;;19.70;13.25;;;;;;;3.53;54.78;94369.34;5087088;28;20074;-76
2023/12/29 05:52:51;;;;;;;19.30;13.25;;;;;;;3.44;55.03;94370.88;5089376;28;20020;-76
2023/12/29 05:55:17;;;;;;;20.25;14.25;;;;;;;3.34;54.66;94371.63;5088338;28;20754;-77
2023/12/29 05:57:42;;;;;;;16.42;12.90;;;;;;;3.40;54.58;94375.88;5090003;28;20108;-76
2023/12/29 06:00:14;;;;;;;20.88;14.75;;;;;;;3.33;54.57;94370.03;5087558;28;20039;-77
2023/12/29 06:02:39;;;;;;;24.70;16.17;;;;;;;3.25;54.18;94349.47;5091536;28;20040;-76
2023/12/29 06:05:05;;;;;;;26.75;15.63;;;;;;;3.29;54.45;94371.59;5086639;28;20035;-77
2023/12/29 06:07:30;;;;;;;23.88;15.13;;;;;;;3.23;54.82;94377.84;5087666;28;20042;-76
2023/12/29 06:09:56;;;;;;;23.80;14.80;;;;;;;3.17;54.35;94352.59;5073777;28;20046;-78
2023/12/29 06:12:21;;;;;;;25.15;16.75;;;;;;;3.00;54.62;94336.19;5089630;28;20059;-77
2023/12/29 06:14:46;;;;;;;19.70;13.63;;;;;;;3.19;55.28;94368.09;5088115;28;20069;-77
2023/12/29 06:17:12;;;;;;;21.27;12.02;;;;;;;2.99;55.53;94344.34;5094713;28;20085;-75
2023/12/29 06:19:37;;;;;;;18.55;11.80;;;;;;;3.11;55.51;94371.19;5087281;28;20038;-75
2023/12/29 06:22:03;;;;;;;15.68;9.98;;;;;;;2.84;56.67;94371.28;5089796;28;20035;-75
2023/12/29 06:24:30;;;;;;;15.70;10.50;;;;;;;2.99;56.42;94366.13;5085363;28;20058;-77
2023/12/29 06:26:55;;;;;;;13.73;10.75;;;;;;;3.09;55.87;94360.13;5088584;28;20567;-74
2023/12/29 06:29:21;;;;;;;15.35;11.20;;;;;;;3.08;55.36;94362.00;5091580;28;20072;-76
2023/12/29 06:31:46;;;;;;;18.13;12.23;;;;;;;3.14;55.35;94371.47;5087771;28;20023;-75
2023/12/29 06:34:11;;;;;;;15.57;11.02;;;;;;;3.16;55.40;94379.91;5089657;28;20123;-75
2023/12/29 06:36:37;;;;;;;20.33;13.75;;;;;;;3.24;55.40;94392.59;5086367;28;20040;-74
2023/12/29 06:39:02;;;;;;;19.58;14.10;;;;;;;3.20;55.79;94388.88;5086788;28;20048;-75
2023/12/29 06:41:28;;;;;;;26.88;17.33;;;;;;;3.18;56.19;94387.56;5088226;28;21012;-75
2023/12/29 06:43:53;;;;;;;21.85;16.25;;;;;;;3.15;56.26;94378.34;5084227;28;20341;-74
2023/12/29 06:46:18;;;;;;;29.27;19.95;;;;;;;3.15;56.25;94382.78;5087894;28;20062;-76
2023/12/29 06:48:44;;;;;;;36.20;24.23;;;;;;;2.94;56.68;94368.72;5089236;28;20040;-74
2023/12/29 06:51:15;;;;;;;38.10;25.90;;;;;;;2.85;57.67;94380.72;5085958;28;20264;-75
2023/12/29 06:53:41;;;;;;;42.50;27.23;;;;;;;2.88;57.53;94377.63;5086006;28;20048;-75
2023/12/29 06:56:07;;;;;;;50.13;32.08;;;;;;;2.75;58.54;94378.81;5084802;28;20046;-75
2023/12/29 06:58:32;;;;;;;48.45;31.38;;;;;;;2.97;58.15;94387.41;5085657;28;20590;-77
2023/12/29 07:00:58;;;;;;;38.00;24.95;;;;;;;3.03;58.17;94385.63;5087029;28;20043;-77
2023/12/29 07:03:23;;;;;;;38.10;24.25;;;;;;;3.05;57.79;94373.00;5088981;28;20032;-77
2023/12/29 07:05:48;;;;;;;53.35;33.17;;;;;;;3.27;57.70;94392.09;5084839;28;20398;-77
2023/12/29 07:08:14;;;;;;;45.72;27.63;;;;;;;3.23;57.70;94369.97;5086694;28;20196;-77
2023/12/29 07:10:39;;;;;;;49.00;27.90;;;;;;;3.40;57.13;94383.75;5092587;28;20623;-77
2023/12/29 07:13:05;;;;;;;42.08;27.05;;;;;;;3.57;56.92;94390.69;5090801;28;20032;-77
2023/12/29 07:15:30;;;;;;;39.78;24.63;;;;;;;3.62;56.90;94380.19;5088447;28;20031;-78
2023/12/29 07:17:56;;;;;;;31.05;21.65;;;;;;;3.50;57.06;94369.88;5093047;28;20043;-77
2023/12/29 07:20:23;;;;;;;34.83;23.15;;;;;;;3.62;57.22;94374.94;5088816;28;20241;-77
2023/12/29 07:22:49;;;;;;;41.67;29.25;;;;;;;3.61;57.36;94375.97;5100714;28;20027;-77
2023/12/29 07:25:14;;;;;;;50.22;29.67;;;;;;;3.77;57.09;94369.75;5097354;28;20044;-78
2023/12/29 07:27:40;;;;;;;49.47;33.45;;;;;;;3.75;57.04;94372.63;5104636;28;20039;-77
2023/12/29 07:30:06;;;;;;;58.17;38.63;;;;;;;3.72;57.00;94356.56;5099135;28;20129;-75
2023/12/29 07:32:31;;;;;;;72.78;42.47;;;;;;;3.35;58.08;94357.44;5091243;28;20020;-77
2023/12/29 07:34:57;;;;;;;79.03;48.45;;;;;;;3.00;60.72;94372.97;5081040;28;20020;-76
2023/12/29 07:37:23;;;;;;;76.75;49.05;;;;;;;3.48;59.28;94379.06;5082959;28;20082;-76
2023/12/29 07:39:48;;;;;;;82.55;52.17;;;;;;;3.11;59.20;94361.47;5083080;28;20040;-76
2023/12/29 07:42:16;;;;;;;70.10;48.13;;;;;;;3.37;59.22;94365.88;5081635;28;20036;-77
2023/12/29 07:44:41;;;;;;;70.15;48.17;;;;;;;3.77;58.00;94375.00;5085192;28;20032;-76
2023/12/29 07:47:07;;;;;;;78.47;47.00;;;;;;;3.98;57.51;94365.34;5083786;28;20023;-76
2023/12/29 07:49:32;;;;;;;79.60;48.13;;;;;;;4.12;57.03;94371.69;5084321;28;20343;-76
2023/12/29 07:51:59;;;;;;;72.00;47.05;;;;;;;3.78;57.66;94358.16;5089483;28;20032;-77
2023/12/29 07:54:24;;;;;;;64.03;41.22;;;;;;;4.13;57.77;94368.81;5090537;28;20040;-77
2023/12/29 07:56:50;;;;;;;51.78;36.45;;;;;;;4.27;56.96;94356.75;5092361;28;20036;-75
2023/12/29 07:59:16;;;;;;;48.95;33.42;;;;;;;4.53;56.75;94372.63;5098876;28;20053;-77
2023/12/29 08:01:44;;;;;;;58.90;36.10;;;;;;;4.11;58.63;94370.91;5093111;28;20532;-76
2023/12/29 08:04:10;;;;;;;62.20;40.60;;;;;;;3.91;59.85;94385.84;5091235;28;20063;-76
2023/12/29 08:06:38;;;;;;;69.15;45.03;;;;;;;3.87;60.32;94395.31;5089991;28;20119;-77
2023/12/29 08:09:03;;;;;;;71.10;45.40;;;;;;;3.96;60.01;94373.50;5094086;28;20174;-76
2023/12/29 08:11:29;;;;;;;64.72;45.55;;;;;;;4.19;59.16;94357.25;5091790;28;20114;-77
2023/12/29 08:13:55;;;;;;;78.05;51.47;;;;;;;3.86;59.03;94341.88;5093690;28;20023;-76
2023/12/29 08:16:20;;;;;;;74.95;48.20;;;;;;;3.81;60.52;94370.81;5091312;28;20032;-76
2023/12/29 08:18:47;;;;;;;87.38;56.40;;;;;;;3.40;61.71;94369.81;5093820;28;20047;-76
2023/12/29 08:21:22;;;;;;;91.15;59.90;;;;;;;3.48;62.20;94360.66;5092801;28;20028;-77
2023/12/29 08:23:48;;;;;;;105.68;64.63;;;;;;;3.53;62.77;94369.34;5093043;28;20113;-77
2023/12/29 08:26:14;;;;;;;111.57;71.57;;;;;;;3.88;62.17;94379.25;5093064;28;20058;-77
2023/12/29 08:28:40;;;;;;;109.43;70.43;;;;;;;4.48;60.27;94376.03;5094649;28;20123;-76
2023/12/29 08:31:07;;;;;;;99.90;66.70;;;;;;;4.45;58.98;94375.78;5095874;28;20116;-76
2023/12/29 08:33:33;;;;;;;103.47;69.55;;;;;;;4.39;59.34;94350.47;5101236;28;20071;-77
2023/12/29 08:36:00;;;;;;;100.13;69.70;;;;;;;4.25;59.10;94356.22;5093750;28;20551;-77
2023/12/29 08:38:27;;;;;;;100.25;66.05;;;;;;;4.83;58.15;94383.19;5094762;28;20023;-76
2023/12/29 08:40:52;;;;;;;94.18;62.58;;;;;;;4.87;57.04;94402.69;5093067;27;20043;-78
2023/12/29 08:43:21;;;;;;;96.43;61.55;;;;;;;4.80;57.88;94383.69;5091557;28;20357;-77
2023/12/29 08:45:47;;;;;;;101.68;65.72;;;;;;;4.23;58.74;94389.91;5096324;27;20391;-76
2023/12/29 08:48:12;;;;;;;84.75;57.00;;;;;;;4.58;58.23;94396.34;5083040;28;20032;-77
2023/12/29 08:50:38;;;;;;;92.32;58.63;;;;;;;4.54;58.64;94380.28;5084812;28;20055;-77
2023/12/29 08:53:03;;;;;;;87.72;56.75;;;;;;;4.53;58.31;94391.84;5089015;28;20057;-76
2023/12/29 08:55:29;;;;;;;88.53;57.38;;;;;;;4.55;58.05;94370.53;5087051;28;20483;-76
2023/12/29 08:57:54;;;;;;;78.53;53.50;;;;;;;4.32;59.33;94376.25;5085967;27;20423;-76
2023/12/29 09:00:20;;;;;;;83.22;55.47;;;;;;;4.53;59.68;94385.78;5082039;27;20040;-76
2023/12/29 09:02:46;;;;;;;81.13;52.42;;;;;;;4.21;60.21;94386.72;5081975;28;20069;-76
2023/12/29 09:05:12;;;;;;;82.72;54.40;;;;;;;4.54;60.46;94401.34;5082584;28;20104;-77
2023/12/29 09:07:37;;;;;;;69.00;49.22;;;;;;;4.84;58.89;94373.44;5086173;28;20525;-76
2023/12/29 09:10:11;;;;;;;76.43;48.08;;;;;;;4.87;58.82;94397.44;5066444;28;20511;-77
2023/12/29 09:12:38;;;;;;;82.15;49.80;;;;;;;4.54;60.10;94395.28;5056112;28;20483;-77
2023/12/29 09:15:04;;;;;;;71.05;43.78;;;;;;;4.64;60.67;94390.03;5081850;28;20043;-77
2023/12/29 09:17:30;;;;;;;63.80;43.55;;;;;;;5.01;59.42;94374.75;5085241;27;20500;-77
2023/12/29 09:19:55;;;;;;;63.90;44.53;;;;;;;5.36;57.93;94373.94;5083914;28;20027;-76
2023/12/29 09:22:20;;;;;;;69.97;47.13;;;;;;;5.24;58.88;94380.53;5080791;28;20889;-77
2023/12/29 09:24:46;;;;;;;72.43;45.33;;;;;;;5.61;57.71;94375.72;5086791;28;20040;-76
2023/12/29 09:27:13;;;;;;;75.18;49.75;;;;;;;5.33;58.82;94376.31;5061479;28;20930;-77
2023/12/29 09:29:38;;;;;;;66.03;41.05;;;;;;;5.35;58.38;94353.09;5070570;28;20142;-77
2023/12/29 09:32:04;;;;;;;65.75;44.83;;;;;;;5.30;58.09;94368.94;5091443;28;20520;-76
2023/12/29 09:34:30;;;;;;;60.85;41.90;;;;;;;5.01;59.46;94335.22;5088208;28;20032;-76
2023/12/29 09:36:55;;;;;;;72.80;48.42;;;;;;;5.34;58.47;94354.16;5071487;28;20097;-77
2023/12/29 09:39:20;;;;;;;72.15;48.80;;;;;;;5.64;58.39;94351.44;5089152;28;20039;-77
2023/12/29 09:41:50;;;;;;;60.10;38.40;;;;;;;5.63;57.94;94349.84;5087779;28;20120;-77
2023/12/29 09:44:18;;;;;;;58.28;39.75;;;;;;;5.19;59.14;94349.69;5081704;28;20039;-77
2023/12/29 09:46:48;;;;;;;69.22;44.58;;;;;;;5.21;59.85;94336.25;5084150;28;20752;-76
2023/12/29 09:49:16;;;;;;;58.78;38.83;;;;;;;4.96;60.13;94318.59;5089935;28;20035;-77
2023/12/29 09:51:42;;;;;;;64.25;38.13;;;;;;;4.44;61.84;94332.06;5087170;28;20075;-77
2023/12/29 09:54:10;;;;;;;58.20;35.47;;;;;;;4.61;62.35;94345.75;5080381;27;20161;-77
2023/12/29 09:56:35;;;;;;;46.13;31.45;;;;;;;4.77;62.83;94347.34;5103215;27;20046;-77
2023/12/29 09:59:03;;;;;;;50.58;30.08;;;;;;;4.94;62.13;94342.59;5083897;28;20484;-77
2023/12/29 10:01:29;;;;;;;50.30;34.22;;;;;;;4.94;62.25;94341.81;5084298;28;20456;-77
2023/12/29 10:03:57;;;;;;;56.78;36.92;;;;;;;5.00;61.65;94336.25;5080687;27;20733;-77
2023/12/29 10:06:25;;;;;;;60.08;34.65;;;;;;;4.92;62.39;94339.44;5100941;27;20024;-77
2023/12/29 10:08:51;;;;;;;51.15;34.78;;;;;;;4.98;62.71;94332.31;5095389;28;20043;-77
2023/12/29 10:11:21;;;;;;;49.17;32.42;;;;;;;5.44;61.75;94319.84;5092482;27;20087;-78
2023/12/29 10:13:50;;;;;;;48.03;32.72;;;;;;;5.55;59.57;94322.19;5085660;28;20745;-77
2023/12/29 10:16:28;;;;;;;58.40;32.63;;;;;;;5.41;59.99;94315.09;5080584;28;20032;-77
2023/12/29 10:19:21;;;;;;;55.70;32.95;;;;;;;5.62;61.34;94324.53;5086079;28;20047;-78
2023/12/29 10:21:55;;;;;;;45.78;31.63;;;;;;;5.96;59.97;94314.09;5093428;28;20043;-77
2023/12/29 10:24:31;;;;;;;48.10;32.95;;;;;;;6.26;57.63;94315.84;5068887;28;20161;-76
2023/12/29 10:26:58;;;;;;;51.28;33.40;;;;;;;6.35;57.75;94303.63;5083785;28;20059;-77
2023/12/29 10:29:27;;;;;;;44.75;30.25;;;;;;;6.76;56.04;94299.59;5093574;28;20050;-77
2023/12/29 10:31:53;;;;;;;41.25;28.75;;;;;;;7.01;55.38;94289.88;5098687;28;20031;-76
2023/12/29 10:34:29;;;;;;;49.15;31.27;;;;;;;7.13;54.88;94279.72;5087993;28;20070;-76
2023/12/29 10:36:58;;;;;;;47.72;30.48;;;;;;;7.42;53.96;94280.47;5088408;28;20119;-77
2023/12/29 10:39:25;;;;;;;48.30;30.38;;;;;;;7.62;53.37;94271.50;5087629;28;20459;-77
2023/12/29 10:42:04;;;;;;;46.85;30.08;;;;;;;7.90;52.33;94265.34;5094787;28;20042;-76
2023/12/29 10:44:29;;;;;;;53.58;31.27;;;;;;;8.15;52.42;94272.19;5103595;28;20035;-77
2023/12/29 10:46:55;;;;;;;47.53;30.88;;;;;;;8.29;51.86;94256.34;5096890;28;20568;-77
2023/12/29 10:49:20;;;;;;;51.78;34.15;;;;;;;7.89;52.36;94260.34;5095914;28;20454;-78
2023/12/29 10:51:46;;;;;;;43.22;30.45;;;;;;;7.88;52.38;94246.31;5088470;28;20100;-77
2023/12/29 10:54:22;;;;;;;48.75;30.88;;;;;;;8.38;51.16;94246.66;5083407;28;20035;-77
2023/12/29 10:57:00;;;;;;;48.88;29.38;;;;;;;8.40;51.16;94233.94;5085902;28;20040;-77
2023/12/29 10:59:25;;;;;;;49.30;29.63;;;;;;;8.51;50.65;94233.47;5083978;28;20211;-76
2023/12/29 11:01:53;;;;;;;40.70;27.83;;;;;;;8.09;51.73;94231.72;5087648;28;20113;-78
2023/12/29 11:04:22;;;;;;;46.42;29.70;;;;;;;8.41;51.22;94223.00;5082462;28;20442;-77
2023/12/29 11:06:50;;;;;;;51.45;28.60;;;;;;;8.45;50.99;94213.44;5085925;28;20042;-77
2023/12/29 11:09:33;;;;;;;42.95;27.52;;;;;;;8.36;51.04;94209.88;5088629;28;20066;-77
2023/12/29 11:12:03;;;;;;;45.88;28.55;;;;;;;8.19;51.71;94211.44;5085599;28;20097;-77
2023/12/29 11:14:29;;;;;;;48.10;29.67;;;;;;;7.79;52.39;94203.00;5085633;28;20574;-78
2023/12/29 11:16:55;;;;;;;43.40;25.83;;;;;;;8.21;51.64;94204.00;5082644;28;20695;-77
2023/12/29 11:19:21;;;;;;;50.45;31.85;;;;;;;8.51;50.52;94220.19;5110474;28;20042;-78
2023/12/29 11:21:55;;;;;;;44.03;30.45;;;;;;;8.73;50.42;94218.81;5102089;28;20418;-77
2023/12/29 11:24:22;;;;;;;45.15;28.70;;;;;;;9.05;49.66;94215.34;5099320;28;20378;-78